createdAt,value
2023-02-12T00:00:10.306Z,101603.06
2023-02-12T00:02:45.453Z,101607.88
2023-02-12T00:05:16.545Z,101618.28
2023-02-12T00:07:46.149Z,101616.88
2023-02-12T00:10:15.920Z,101612.38
2023-02-12T00:12:48.105Z,101617.44
2023-02-12T00:15:17.728Z,101619.69
2023-02-12T00:17:47.279Z,101616.97
2023-02-12T00:20:16.872Z,101623.94
2023-02-12T00:22:46.459Z,101628.84
2023-02-12T00:25:17.176Z,101625.25
2023-02-12T00:27:49.299Z,101629.47
2023-02-12T00:30:19.444Z,101632.59
2023-02-12T00:32:49.052Z,101626.59
2023-02-12T00:35:18.788Z,101623.66
2023-02-12T00:37:48.346Z,101628.63
2023-02-12T00:40:17.844Z,101624.88
2023-02-12T00:42:50.013Z,101630.31
2023-02-12T00:45:20.365Z,101628.63
2023-02-12T00:47:49.994Z,101630.50
2023-02-12T00:50:19.843Z,101635.47
2023-02-12T00:52:49.428Z,101643.22
2023-02-12T00:55:19.582Z,101647.97
2023-02-12T00:57:51.873Z,101640.09
2023-02-12T01:00:21.781Z,101636.81
2023-02-12T01:02:51.337Z,101642.63
2023-02-12T01:05:21.970Z,101645.66
2023-02-12T01:07:52.273Z,101648.06
2023-02-12T01:10:23.384Z,101645.19
2023-02-12T01:12:55.987Z,101641.50
2023-02-12T01:15:26.011Z,101647.63
2023-02-12T01:17:55.754Z,101651.75
2023-02-12T01:20:28.009Z,101654.09
2023-02-12T01:22:57.601Z,101663.97
2023-02-12T01:25:27.126Z,101655.31
2023-02-12T01:28:00.939Z,101656.25
2023-02-12T01:30:30.531Z,101660.22
2023-02-12T01:33:00.697Z,101651.28
2023-02-12T01:35:30.566Z,101653.72
2023-02-12T01:38:00.151Z,101642.81
2023-02-12T01:40:30.027Z,101644.22
2023-02-12T01:43:06.077Z,101641.31
2023-02-12T01:45:53.743Z,101647.41
2023-02-12T01:48:28.204Z,101642.72
2023-02-12T01:50:59.581Z,101646.66
2023-02-12T01:53:34.737Z,101651.94
2023-02-12T01:56:05.868Z,101655.31
2023-02-12T01:58:41.913Z,101655.03
2023-02-12T02:01:18.178Z,101652.22
2023-02-12T02:03:49.789Z,101654.16
2023-02-12T02:06:23.515Z,101658.41
2023-02-12T02:08:53.841Z,101662.34
2023-02-12T02:11:36.132Z,101661.13
2023-02-12T02:14:20.961Z,101675.41
2023-02-12T02:17:00.637Z,101666.38
2023-02-12T02:19:48.285Z,101673.06
2023-02-12T02:22:29.903Z,101675.97
2023-02-12T02:25:30.758Z,101670.34
2023-02-12T02:28:09.325Z,101649.94
2023-02-12T02:30:46.809Z,101663.94
2023-02-12T02:33:27.357Z,101661.88
2023-02-12T02:36:07.012Z,101668.84
2023-02-12T02:38:43.442Z,101664.06
2023-02-12T02:41:20.585Z,101658.31
2023-02-12T02:43:52.705Z,101659.91
2023-02-12T02:46:31.665Z,101662.53
2023-02-12T02:49:04.711Z,101666.69
2023-02-12T02:51:37.834Z,101666.03
2023-02-12T02:54:14.326Z,101663.47
2023-02-12T02:56:47.549Z,101663.75
2023-02-12T02:59:21.904Z,101660.75
2023-02-12T03:02:00.190Z,101662.06
2023-02-12T03:04:34.600Z,101666.03
2023-02-12T03:07:09.831Z,101662.28
2023-02-12T03:09:42.814Z,101668.09
2023-02-12T03:12:17.134Z,101660.28
2023-02-12T03:14:51.843Z,101663.75
2023-02-12T03:17:27.070Z,101670.06
2023-02-12T03:20:01.662Z,101673.91
2023-02-12T03:22:34.780Z,101669.66
2023-02-12T03:25:12.254Z,101670.16
2023-02-12T03:27:45.396Z,101679.56
2023-02-12T03:30:16.399Z,101670.16
2023-02-12T03:32:57.124Z,101673.81
2023-02-12T03:35:31.510Z,101686.31
2023-02-12T03:38:05.716Z,101682.34
2023-02-12T03:40:40.259Z,101694.84
2023-02-12T03:43:17.464Z,101698.34
2023-02-12T03:45:53.606Z,101701.72
2023-02-12T03:48:30.653Z,101697.13
2023-02-12T03:51:06.368Z,101698.91
2023-02-12T03:53:35.901Z,101696.84
2023-02-12T03:56:11.157Z,101696.94
2023-02-12T03:58:44.081Z,101710.94
2023-02-12T04:01:14.779Z,101702.56
2023-02-12T04:03:47.252Z,101700.59
2023-02-12T04:06:23.740Z,101710.81
2023-02-12T04:08:53.341Z,101713.19
2023-02-12T04:11:31.882Z,101713.53
2023-02-12T04:14:15.910Z,101725.03
2023-02-12T04:16:51.864Z,101730.31
2023-02-12T04:19:36.249Z,101728.63
2023-02-12T04:22:21.113Z,101722.00
2023-02-12T04:25:03.122Z,101718.63
2023-02-12T04:27:40.105Z,101730.94
2023-02-12T04:30:16.516Z,101738.66
2023-02-12T04:32:49.453Z,101743.06
2023-02-12T04:35:26.501Z,101739.13
2023-02-12T04:38:02.013Z,101742.25
2023-02-12T04:40:31.644Z,101749.25
2023-02-12T04:43:01.206Z,101750.47
2023-02-12T04:45:33.196Z,101753.94
2023-02-12T04:48:03.198Z,101754.41
2023-02-12T04:50:41.819Z,101751.50
2023-02-12T04:53:12.793Z,101751.09
2023-02-12T04:55:42.472Z,101756.28
2023-02-12T04:58:12.105Z,101755.81
2023-02-12T05:00:41.924Z,101757.16
2023-02-12T05:03:11.496Z,101754.53
2023-02-12T05:05:43.632Z,101761.16
2023-02-12T05:08:13.233Z,101769.97
2023-02-12T05:10:42.820Z,101778.44
2023-02-12T05:13:13.470Z,101772.47
2023-02-12T05:15:43.084Z,101775.41
2023-02-12T05:18:12.721Z,101782.19
2023-02-12T05:20:44.931Z,101772.41
2023-02-12T05:23:14.545Z,101781.47
2023-02-12T05:25:44.219Z,101785.53
2023-02-12T05:28:13.874Z,101786.81
2023-02-12T05:30:43.576Z,101785.97
2023-02-12T05:33:13.178Z,101786.31
2023-02-12T05:35:45.379Z,101785.59
2023-02-12T05:38:14.986Z,101789.44
2023-02-12T05:40:44.541Z,101787.03
2023-02-12T05:43:14.211Z,101796.66
2023-02-12T05:45:45.123Z,101800.09
2023-02-12T05:48:14.730Z,101793.69
2023-02-12T05:50:46.883Z,101796.72
2023-02-12T05:53:16.415Z,101796.34
2023-02-12T05:55:45.927Z,101800.09
2023-02-12T05:58:16.178Z,101806.41
2023-02-12T06:00:46.847Z,101801.34
2023-02-12T06:03:16.457Z,101798.91
2023-02-12T06:05:53.436Z,101801.56
2023-02-12T06:08:23.258Z,101802.66
2023-02-12T06:10:52.811Z,101795.78
2023-02-12T06:13:22.356Z,101794.13
2023-02-12T06:15:51.887Z,101797.50
2023-02-12T06:18:21.489Z,101807.13
2023-02-12T06:20:54.318Z,101803.25
2023-02-12T06:23:24.211Z,101803.56
2023-02-12T06:26:00.007Z,101804.97
2023-02-12T06:28:29.572Z,101811.00
2023-02-12T06:30:59.213Z,101809.72
2023-02-12T06:33:28.945Z,101802.59
2023-02-12T06:36:01.058Z,101807.84
2023-02-12T06:38:30.607Z,101815.56
2023-02-12T06:41:00.126Z,101814.88
2023-02-12T06:43:30.304Z,101818.50
2023-02-12T06:46:03.735Z,101827.75
2023-02-12T06:48:33.604Z,101828.03
2023-02-12T06:51:11.545Z,101815.91
2023-02-12T06:53:41.589Z,101824.69
2023-02-12T06:56:13.633Z,101827.72
2023-02-12T06:58:45.534Z,101825.19
2023-02-12T07:01:18.067Z,101821.47
2023-02-12T07:03:51.496Z,101825.88
2023-02-12T07:06:24.947Z,101826.63
2023-02-12T07:08:54.840Z,101825.94
2023-02-12T07:11:26.339Z,101824.19
2023-02-12T07:13:55.941Z,101823.66
2023-02-12T07:16:26.349Z,101833.34
2023-02-12T07:18:55.928Z,101830.22
2023-02-12T07:21:28.185Z,101839.56
2023-02-12T07:23:57.732Z,101843.19
2023-02-12T07:26:27.282Z,101847.56
2023-02-12T07:28:56.822Z,101846.69
2023-02-12T07:31:27.189Z,101847.69
2023-02-12T07:33:58.356Z,101844.97
2023-02-12T07:36:32.899Z,101833.16
2023-02-12T07:39:02.734Z,101837.31
2023-02-12T07:41:34.337Z,101840.25
2023-02-12T07:44:07.525Z,101823.16
2023-02-12T07:46:39.708Z,101828.34
2023-02-12T07:49:10.899Z,101827.06
2023-02-12T07:51:43.447Z,101825.47
2023-02-12T07:54:13.797Z,101821.41
2023-02-12T07:56:47.088Z,101825.47
2023-02-12T07:59:18.824Z,101828.84
2023-02-12T08:01:49.892Z,101824.84
2023-02-12T08:04:21.728Z,101833.38
2023-02-12T08:06:56.705Z,101826.00
2023-02-12T08:09:28.550Z,101831.47
2023-02-12T08:11:59.528Z,101835.88
2023-02-12T08:14:29.865Z,101836.88
2023-02-12T08:16:59.456Z,101829.75
2023-02-12T08:19:29.072Z,101832.66
2023-02-12T08:22:03.124Z,101833.88
2023-02-12T08:24:32.981Z,101833.13
2023-02-12T08:27:02.628Z,101835.13
2023-02-12T08:29:32.923Z,101830.78
2023-02-12T08:32:06.451Z,101832.03
2023-02-12T08:34:37.972Z,101828.00
2023-02-12T08:37:10.293Z,101825.38
2023-02-12T08:39:39.826Z,101839.34
2023-02-12T08:42:09.485Z,101836.75
2023-02-12T08:44:40.825Z,101829.59
2023-02-12T08:47:10.420Z,101831.06
2023-02-12T08:49:40.444Z,101828.13
2023-02-12T08:52:12.600Z,101818.28
2023-02-12T08:54:42.138Z,101825.22
2023-02-12T08:57:11.785Z,101841.38
2023-02-12T08:59:41.328Z,101835.06
2023-02-12T09:02:12.508Z,101842.16
2023-02-12T09:04:42.140Z,101837.75
2023-02-12T09:07:14.303Z,101840.91
2023-02-12T09:09:43.968Z,101837.44
2023-02-12T09:12:13.600Z,101838.69
2023-02-12T09:14:43.482Z,101827.56
2023-02-12T09:17:13.076Z,101833.00
2023-02-12T09:19:42.941Z,101825.47
2023-02-12T09:22:15.051Z,101836.69
2023-02-12T09:24:44.659Z,101827.66
2023-02-12T09:27:14.228Z,101833.50
2023-02-12T09:29:43.815Z,101831.47
2023-02-12T09:32:13.532Z,101823.22
2023-02-12T09:34:43.198Z,101826.91
2023-02-12T09:37:15.373Z,101826.50
2023-02-12T09:39:45.234Z,101824.56
2023-02-12T09:42:39.251Z,101830.94
2023-02-12T09:45:18.860Z,101826.53
2023-02-12T09:47:56.988Z,101824.84
2023-02-12T09:50:48.584Z,101812.00
2023-02-12T09:53:23.789Z,101822.44
2023-02-12T09:55:53.972Z,101814.53
2023-02-12T09:58:31.561Z,101820.53
2023-02-12T10:01:01.586Z,101809.75
2023-02-12T10:03:33.588Z,101812.81
2023-02-12T10:06:07.616Z,101818.81
2023-02-12T10:09:01.469Z,101826.84
2023-02-12T10:11:53.306Z,101812.59
2023-02-12T10:14:53.331Z,101811.97
2023-02-12T10:17:31.415Z,101803.09
2023-02-12T10:20:25.424Z,101807.13
2023-02-12T10:23:11.015Z,101806.41
2023-02-12T10:25:53.101Z,101801.69
2023-02-12T10:28:28.699Z,101810.59
2023-02-12T10:31:00.421Z,101803.38
2023-02-12T10:33:32.334Z,101793.50
2023-02-12T10:36:07.597Z,101795.06
2023-02-12T10:38:42.427Z,101785.56
2023-02-12T10:41:18.501Z,101782.19
2023-02-12T10:43:48.212Z,101780.69
2023-02-12T10:46:19.058Z,101784.41
2023-02-12T10:48:54.030Z,101780.03
2023-02-12T10:51:47.241Z,101787.31
2023-02-12T10:54:35.654Z,101775.41
2023-02-12T10:57:16.007Z,101779.38
2023-02-12T10:59:47.143Z,101779.53
2023-02-12T11:02:27.222Z,101769.06
2023-02-12T11:04:59.228Z,101757.00
2023-02-12T11:07:30.317Z,101753.88
2023-02-12T11:10:00.336Z,101760.63
2023-02-12T11:12:36.761Z,101759.47
2023-02-12T11:15:16.003Z,101763.00
2023-02-12T11:17:47.846Z,101760.28
2023-02-12T11:20:26.856Z,101756.75
2023-02-12T11:22:58.919Z,101753.78
2023-02-12T11:25:31.339Z,101748.53
2023-02-12T11:28:17.538Z,101736.16
2023-02-12T11:30:54.549Z,101731.38
2023-02-12T11:33:34.680Z,101734.72
2023-02-12T11:36:08.337Z,101730.22
2023-02-12T11:38:41.916Z,101729.19
2023-02-12T11:41:27.261Z,101731.22
2023-02-12T11:43:59.653Z,101723.19
2023-02-12T11:46:30.749Z,101724.28
2023-02-12T11:49:01.969Z,101708.69
2023-02-12T11:51:33.831Z,101714.16
2023-02-12T11:54:07.207Z,101713.72
2023-02-12T11:56:45.429Z,101703.59
2023-02-12T11:59:30.230Z,101710.28
2023-02-12T12:02:04.813Z,101705.63
2023-02-12T12:04:36.983Z,101716.56
2023-02-12T12:07:15.317Z,101709.06
2023-02-12T12:09:51.029Z,101711.63
2023-02-12T12:12:25.709Z,101713.81
2023-02-12T12:15:15.641Z,101723.47
2023-02-12T12:18:02.569Z,101725.44
2023-02-12T12:20:38.185Z,101715.16
2023-02-12T12:23:12.591Z,101717.06
2023-02-12T12:25:48.827Z,101724.09
2023-02-12T12:28:34.145Z,101726.31
2023-02-12T12:31:12.933Z,101721.81
2023-02-12T12:33:46.878Z,101718.06
2023-02-12T12:36:40.095Z,101727.44
2023-02-12T12:39:21.429Z,101722.00
2023-02-12T12:42:06.334Z,101728.59
2023-02-12T12:44:48.846Z,101724.97
2023-02-12T12:47:28.700Z,101718.44
2023-02-12T12:50:10.492Z,101724.94
2023-02-12T12:52:56.306Z,101729.16
2023-02-12T12:55:48.726Z,101720.56
2023-02-12T12:58:26.919Z,101719.91
2023-02-12T13:01:12.989Z,101719.47
2023-02-12T13:17:20.356Z,101697.19
2023-02-12T13:19:59.664Z,101700.16
2023-02-12T13:22:35.849Z,101694.75
2023-02-12T13:25:19.529Z,101689.03
2023-02-12T13:27:50.694Z,101693.78
2023-02-12T13:30:24.903Z,101679.84
2023-02-12T13:33:07.708Z,101688.19
2023-02-12T13:35:40.612Z,101686.16
2023-02-12T13:38:11.964Z,101675.34
2023-02-12T13:40:43.446Z,101687.53
2023-02-12T13:43:26.879Z,101683.88
2023-02-12T13:46:06.539Z,101673.59
2023-02-12T13:48:54.750Z,101678.63
2023-02-12T13:51:33.178Z,101671.34
2023-02-12T13:54:16.130Z,101665.25
2023-02-12T13:56:48.066Z,101665.63
2023-02-12T13:59:43.119Z,101661.47
2023-02-12T14:02:31.303Z,101660.59
2023-02-12T14:05:05.321Z,101659.38
2023-02-12T14:07:45.810Z,101656.41
2023-02-12T14:10:24.434Z,101657.66
2023-02-12T14:12:56.309Z,101656.81
2023-02-12T14:15:46.253Z,101662.91
2023-02-12T14:18:32.791Z,101663.97
2023-02-12T14:21:47.173Z,101660.00
2023-02-12T14:24:54.064Z,101665.81
2023-02-12T14:27:31.857Z,101671.50
2023-02-12T14:30:31.322Z,101671.16
2023-02-12T14:33:29.361Z,101671.78
2023-02-12T14:36:18.790Z,101667.53
2023-02-12T14:39:04.813Z,101670.72
2023-02-12T14:41:41.975Z,101670.50
2023-02-12T14:44:47.765Z,101663.75
2023-02-12T14:47:54.363Z,101670.75
2023-02-12T14:50:33.092Z,101670.09
2023-02-12T14:53:09.118Z,101669.47
2023-02-12T14:55:38.945Z,101668.63
2023-02-12T14:58:21.476Z,101669.03
2023-02-12T15:00:55.918Z,101666.94
2023-02-12T15:03:30.734Z,101668.97
2023-02-12T15:06:16.044Z,101676.41
2023-02-12T15:08:56.429Z,101673.78
2023-02-12T15:11:36.650Z,101679.28
2023-02-12T15:14:14.849Z,101681.13
2023-02-12T15:16:52.307Z,101679.09
2023-02-12T15:19:37.732Z,101670.78
2023-02-12T15:22:20.346Z,101668.16
2023-02-12T15:24:50.147Z,101682.00
2023-02-12T15:27:21.889Z,101680.97
2023-02-12T15:29:56.063Z,101681.06
2023-02-12T15:32:29.787Z,101685.09
2023-02-12T15:34:59.615Z,101682.19
2023-02-12T15:37:32.082Z,101671.78
2023-02-12T15:40:05.718Z,101678.97
2023-02-12T15:42:37.906Z,101682.69
2023-02-12T15:45:26.124Z,101678.66
2023-02-12T15:48:15.489Z,101681.78
2023-02-12T15:50:53.775Z,101677.06
2023-02-12T15:53:25.898Z,101677.53
2023-02-12T15:55:56.114Z,101682.53
2023-02-12T15:58:28.281Z,101683.28
2023-02-12T16:01:04.579Z,101681.19
2023-02-12T16:03:36.314Z,101683.34
2023-02-12T16:06:11.303Z,101687.81
2023-02-12T16:08:42.281Z,101685.00
2023-02-12T16:11:16.391Z,101683.81
2023-02-12T16:13:49.062Z,101686.25
2023-02-12T16:16:25.649Z,101679.13
2023-02-12T16:19:19.624Z,101677.97
2023-02-12T16:21:52.662Z,101673.91
2023-02-12T16:24:28.119Z,101673.19
2023-02-12T16:26:59.071Z,101684.53
2023-02-12T16:29:28.701Z,101676.66
2023-02-12T16:32:03.385Z,101679.75
2023-02-12T16:34:36.333Z,101688.59
2023-02-12T16:37:07.854Z,101681.31
2023-02-12T16:40:13.124Z,101689.69
2023-02-12T16:43:03.371Z,101685.31
2023-02-12T16:45:42.034Z,101686.16
2023-02-12T16:48:26.093Z,101696.09
2023-02-12T16:50:58.017Z,101698.53
2023-02-12T16:53:43.601Z,101693.06
2023-02-12T16:56:18.474Z,101693.84
2023-02-12T16:58:50.075Z,101701.91
2023-02-12T17:01:25.759Z,101694.72
2023-02-12T17:03:58.756Z,101698.03
2023-02-12T17:06:30.401Z,101707.25
2023-02-12T17:09:00.801Z,101715.00
2023-02-12T17:11:31.358Z,101714.69
2023-02-12T17:14:01.052Z,101713.69
2023-02-12T17:16:32.053Z,101716.00
2023-02-12T17:19:04.482Z,101721.13
2023-02-12T17:21:38.465Z,101724.94
2023-02-12T17:24:10.171Z,101725.53
2023-02-12T17:26:39.736Z,101736.38
2023-02-12T17:29:09.272Z,101737.56
2023-02-12T17:31:39.311Z,101733.38
2023-02-12T17:34:11.496Z,101738.94
2023-02-12T17:36:42.096Z,101745.84
2023-02-12T17:39:14.692Z,101747.94
2023-02-12T17:41:44.792Z,101756.88
2023-02-12T17:44:15.683Z,101764.69
2023-02-12T17:46:46.035Z,101762.50
2023-02-12T17:49:18.466Z,101760.75
2023-02-12T17:51:48.028Z,101764.16
2023-02-12T17:54:18.779Z,101759.63
2023-02-12T17:56:48.366Z,101756.22
2023-02-12T17:59:17.941Z,101752.28
2023-02-12T18:01:47.912Z,101755.69
2023-02-12T18:04:20.095Z,101753.75
2023-02-12T18:06:50.048Z,101752.88
2023-02-12T18:09:19.600Z,101757.00
2023-02-12T18:11:49.191Z,101760.56
2023-02-12T18:14:18.738Z,101763.41
2023-02-12T18:16:48.434Z,101771.75
2023-02-12T18:19:20.572Z,101767.28
2023-02-12T18:21:50.155Z,101769.59
2023-02-12T18:24:19.728Z,101765.94
2023-02-12T18:26:49.334Z,101766.50
2023-02-12T18:29:18.909Z,101759.63
2023-02-12T18:31:48.597Z,101753.47
2023-02-12T18:34:20.791Z,101758.25
2023-02-12T18:36:50.349Z,101756.91
2023-02-12T18:39:19.946Z,101763.22
2023-02-12T18:41:49.579Z,101762.66
2023-02-12T18:44:19.133Z,101761.25
2023-02-12T18:46:48.686Z,101765.75
2023-02-12T18:49:20.924Z,101763.59
2023-02-12T18:51:50.511Z,101765.47
2023-02-12T18:54:20.104Z,101760.13
2023-02-12T18:56:53.718Z,101763.00
2023-02-12T18:59:27.122Z,101760.03
2023-02-12T19:01:57.282Z,101766.03
2023-02-12T19:04:30.283Z,101759.47
2023-02-12T19:07:00.948Z,101763.41
2023-02-12T19:09:30.510Z,101769.03
2023-02-12T19:12:01.420Z,101766.22
2023-02-12T19:14:31.188Z,101772.03
2023-02-12T19:17:00.814Z,101776.38
2023-02-12T19:19:33.009Z,101777.78
2023-02-12T19:22:02.642Z,101775.72
2023-02-12T19:24:45.565Z,101770.00
2023-02-12T19:27:16.069Z,101774.88
2023-02-12T19:29:45.988Z,101776.00
2023-02-12T19:32:15.545Z,101781.53
2023-02-12T19:34:48.105Z,101775.81
2023-02-12T19:37:17.753Z,101784.41
2023-02-12T19:39:47.284Z,101777.03
2023-02-12T19:42:17.731Z,101782.59
2023-02-12T19:44:47.463Z,101778.00
2023-02-12T19:47:17.900Z,101776.56
2023-02-12T19:49:50.171Z,101778.06
2023-02-12T19:52:19.731Z,101773.28
2023-02-12T19:54:49.291Z,101768.56
2023-02-12T19:57:18.830Z,101765.44
2023-02-12T19:59:49.124Z,101766.50
2023-02-12T20:02:18.807Z,101769.16
2023-02-12T20:04:51.093Z,101765.72
2023-02-12T20:07:20.663Z,101766.13
2023-02-12T20:09:53.295Z,101766.53
2023-02-12T20:12:22.920Z,101761.47
2023-02-12T20:14:52.500Z,101759.69
2023-02-12T20:17:22.176Z,101762.78
2023-02-12T20:19:54.317Z,101766.81
2023-02-12T20:22:24.709Z,101762.06
2023-02-12T20:24:54.281Z,101761.38
2023-02-12T20:27:23.813Z,101776.53
2023-02-12T20:29:53.384Z,101774.75
2023-02-12T20:32:22.929Z,101778.59
2023-02-12T20:34:56.002Z,101779.97
2023-02-12T20:37:25.579Z,101793.78
2023-02-12T20:39:55.143Z,101786.00
2023-02-12T20:42:24.739Z,101787.38
2023-02-12T20:44:54.306Z,101801.69
2023-02-12T20:47:28.717Z,101805.16
2023-02-12T20:50:01.365Z,101796.69
2023-02-12T20:52:32.094Z,101814.63
2023-02-12T20:55:01.639Z,101815.41
2023-02-12T20:57:31.569Z,101812.94
2023-02-12T21:00:01.120Z,101819.56
2023-02-12T21:02:31.351Z,101823.53
2023-02-12T21:05:03.504Z,101830.19
2023-02-12T21:07:33.115Z,101829.03
2023-02-12T21:10:02.679Z,101832.88
2023-02-12T21:12:32.324Z,101826.06
2023-02-12T21:15:01.909Z,101830.22
2023-02-12T21:17:31.501Z,101822.88
2023-02-12T21:20:03.688Z,101816.66
2023-02-12T21:22:33.286Z,101819.94
2023-02-12T21:25:02.902Z,101813.56
2023-02-12T21:27:32.999Z,101810.16
2023-02-12T21:30:02.514Z,101801.00
2023-02-12T21:32:32.163Z,101799.44
2023-02-12T21:35:04.394Z,101789.81
2023-02-12T21:37:33.950Z,101791.81
2023-02-12T21:40:03.532Z,101784.69
2023-02-12T21:42:33.062Z,101784.47
2023-02-12T21:45:02.603Z,101782.28
2023-02-12T21:47:32.696Z,101786.38
2023-02-12T21:50:04.905Z,101783.81
2023-02-12T21:52:34.457Z,101785.03
2023-02-12T21:55:03.982Z,101783.34
2023-02-12T21:57:33.552Z,101780.53
2023-02-12T22:00:03.142Z,101779.22
2023-02-12T22:02:42.331Z,101770.25
2023-02-12T22:05:14.569Z,101768.88
2023-02-12T22:07:44.225Z,101775.13
2023-02-12T22:10:14.334Z,101772.28
2023-02-12T22:12:43.870Z,101777.34
2023-02-12T22:15:13.451Z,101769.88
2023-02-12T22:17:43.585Z,101760.53
2023-02-12T22:20:16.514Z,101763.34
2023-02-12T22:22:46.124Z,101757.19
2023-02-12T22:25:15.807Z,101766.13
2023-02-12T22:27:45.348Z,101757.13
2023-02-12T22:30:16.723Z,101759.72
2023-02-12T22:32:46.630Z,101756.84
2023-02-12T22:35:20.062Z,101753.25
2023-02-12T22:37:49.601Z,101758.25
2023-02-12T22:40:19.889Z,101753.03
2023-02-12T22:42:49.448Z,101751.31
2023-02-12T22:45:19.061Z,101756.00
2023-02-12T22:47:48.610Z,101746.34
2023-02-12T22:50:20.927Z,101755.97
2023-02-12T22:52:50.618Z,101759.16
2023-02-12T22:55:20.211Z,101755.16
2023-02-12T22:57:49.779Z,101759.94
2023-02-12T23:00:20.925Z,101767.25
2023-02-12T23:02:50.427Z,101760.84
2023-02-12T23:05:22.684Z,101771.66
2023-02-12T23:07:52.270Z,101757.81
2023-02-12T23:10:22.168Z,101760.13
2023-02-12T23:12:51.907Z,101759.84
2023-02-12T23:15:21.507Z,101756.47
2023-02-12T23:17:51.083Z,101746.56
2023-02-12T23:20:23.430Z,101743.44
2023-02-12T23:22:53.047Z,101745.38
2023-02-12T23:25:22.598Z,101746.09
2023-02-12T23:27:52.176Z,101753.63
2023-02-12T23:30:21.909Z,101741.13
2023-02-12T23:32:51.491Z,101746.06
2023-02-12T23:35:23.638Z,101736.69
2023-02-12T23:37:53.307Z,101733.59
2023-02-12T23:40:23.271Z,101738.38
2023-02-12T23:42:52.810Z,101725.63
2023-02-12T23:45:22.333Z,101734.03
2023-02-12T23:47:51.963Z,101739.25
2023-02-12T23:50:24.349Z,101733.50
2023-02-12T23:52:54.018Z,101732.84
2023-02-12T23:55:23.658Z,101735.00
2023-02-12T23:57:53.248Z,101726.59
